Time;durP1;ratioP1;P1;durP2;ratioP2;P2;SDS_P1;SDS_P2;PMS_P1;PMS_P2;Temp;Humidity;BMP_temperature;BMP_pressure;BME280_temperature;BME280_humidity;BME280_pressure;Samples;Min_cycle;Max_cycle;Signal;HPM_P1;HPM_P2
2022/12/25 00:01:42;;;;;;;7.28;3.47;;;20.90;43.90;;;;;;5046651;28;20048;-46
2022/12/25 00:04:08;;;;;;;7.72;3.33;;;20.90;44.00;;;;;;5041112;28;20033;-50
2022/12/25 00:06:34;;;;;;;7.07;3.50;;;20.90;44.00;;;;;;5040573;28;20076;-50
2022/12/25 00:09:00;;;;;;;8.07;3.38;;;20.90;44.00;;;;;;5043816;28;20501;-48
2022/12/25 00:11:26;;;;;;;7.35;3.25;;;20.90;44.00;;;;;;5044472;28;20055;-49
2022/12/25 00:13:51;;;;;;;6.93;3.20;;;20.90;44.00;;;;;;5046550;28;20022;-48
2022/12/25 00:16:23;;;;;;;6.63;3.20;;;20.90;44.00;;;;;;5044015;28;20069;-49
2022/12/25 00:18:50;;;;;;;8.73;3.22;;;20.90;44.00;;;;;;5044102;28;20033;-49
2022/12/25 00:21:16;;;;;;;8.77;3.22;;;20.90;44.10;;;;;;5040788;28;20044;-47
2022/12/25 00:23:42;;;;;;;6.10;2.70;;;20.80;44.10;;;;;;5045124;28;20021;-49
2022/12/25 00:26:11;;;;;;;6.53;2.80;;;20.80;44.10;;;;;;5047005;28;20464;-52
2022/12/25 00:28:37;;;;;;;7.15;3.10;;;20.90;44.10;;;;;;5044154;28;20412;-53
2022/12/25 00:31:08;;;;;;;5.15;2.65;;;20.80;44.10;;;;;;5044546;28;20361;-53
2022/12/25 00:33:39;;;;;;;8.20;3.50;;;20.80;44.10;;;;;;5045696;28;20104;-53
2022/12/25 00:36:05;;;;;;;7.95;3.22;;;20.80;44.20;;;;;;5047216;28;20033;-49
2022/12/25 00:38:33;;;;;;;8.02;2.97;;;20.80;44.20;;;;;;5050319;28;20028;-51
2022/12/25 00:40:58;;;;;;;6.68;2.88;;;20.80;44.20;;;;;;5045176;28;20132;-51
2022/12/25 00:43:24;;;;;;;5.65;2.83;;;20.80;44.20;;;;;;5028530;28;20108;-48
2022/12/25 00:45:59;;;;;;;6.20;3.05;;;20.80;44.20;;;;;;5046946;28;20112;-46
2022/12/25 00:48:26;;;;;;;7.05;2.75;;;20.80;44.20;;;;;;5043272;28;20031;-48
2022/12/25 00:50:57;;;;;;;7.50;3.13;;;20.80;44.30;;;;;;5044205;28;20119;-47
2022/12/25 00:53:23;;;;;;;7.82;2.80;;;20.80;44.30;;;;;;5048265;28;20052;-51
2022/12/25 00:55:51;;;;;;;5.13;2.42;;;20.80;44.30;;;;;;5045776;28;20096;-46
2022/12/25 00:58:17;;;;;;;7.18;3.33;;;20.80;44.40;;;;;;5048925;28;20044;-49
2022/12/25 01:00:43;;;;;;;7.57;2.72;;;20.80;45.10;;;;;;5046991;28;20026;-52
2022/12/25 01:03:09;;;;;;;5.88;2.58;;;20.80;44.50;;;;;;5043183;28;20035;-49
2022/12/25 01:05:35;;;;;;;5.82;2.60;;;20.70;44.50;;;;;;5047189;28;20108;-47
2022/12/25 01:08:01;;;;;;;6.20;2.70;;;20.80;44.50;;;;;;5049107;28;20031;-48
2022/12/25 01:10:26;;;;;;;6.57;2.63;;;20.70;44.40;;;;;;5043295;28;20033;-52
2022/12/25 01:12:52;;;;;;;5.72;2.40;;;20.70;44.40;;;;;;5048964;28;20187;-49
2022/12/25 01:15:18;;;;;;;5.82;2.50;;;20.70;44.40;;;;;;5044648;28;20373;-52
2022/12/25 01:17:44;;;;;;;6.57;2.40;;;20.70;44.50;;;;;;5046689;28;20123;-47
2022/12/25 01:20:13;;;;;;;6.28;2.33;;;20.70;44.50;;;;;;5044658;28;20024;-46
2022/12/25 01:22:39;;;;;;;4.82;2.50;;;20.70;44.50;;;;;;5051211;28;20108;-49
2022/12/25 01:25:05;;;;;;;7.32;2.40;;;20.70;44.50;;;;;;5045738;28;20448;-49
2022/12/25 01:27:32;;;;;;;6.07;2.50;;;20.70;44.50;;;;;;5046003;28;20033;-48
2022/12/25 01:29:58;;;;;;;3.95;2.22;;;20.70;44.60;;;;;;5049377;28;20040;-50
2022/12/25 01:32:24;;;;;;;5.55;2.25;;;20.70;44.50;;;;;;5044362;28;20036;-48
2022/12/25 01:34:50;;;;;;;4.93;1.98;;;20.70;44.60;;;;;;5042136;28;20103;-50
2022/12/25 01:37:16;;;;;;;5.88;2.33;;;20.70;44.60;;;;;;5045414;28;20029;-48
2022/12/25 01:39:42;;;;;;;4.93;2.15;;;20.70;44.60;;;;;;5046783;28;20094;-49
2022/12/25 01:42:16;;;;;;;5.80;2.28;;;20.70;44.60;;;;;;5045349;28;20029;-48
2022/12/25 01:44:45;;;;;;;7.00;2.40;;;20.70;44.60;;;;;;5045470;28;20455;-48
2022/12/25 01:47:11;;;;;;;6.53;2.72;;;20.70;44.70;;;;;;5044278;28;20056;-53
2022/12/25 01:49:39;;;;;;;4.30;2.22;;;20.70;44.70;;;;;;5045224;28;20021;-49
2022/12/25 01:52:12;;;;;;;5.22;2.13;;;20.70;44.70;;;;;;5047212;28;20091;-50
2022/12/25 01:54:59;;;;;;;5.97;2.30;;;20.70;44.80;;;;;;5046396;28;20029;-51
2022/12/25 01:57:32;;;;;;;5.68;2.25;;;20.60;44.70;;;;;;5043663;28;20345;-50
2022/12/25 02:00:00;;;;;;;5.38;2.20;;;20.70;44.80;;;;;;5047286;28;20399;-51
2022/12/25 02:02:27;;;;;;;6.82;2.40;;;20.60;44.80;;;;;;5044893;28;20025;-51
2022/12/25 02:05:02;;;;;;;5.10;2.20;;;20.60;44.80;;;;;;5044888;28;20069;-53
2022/12/25 02:07:32;;;;;;;4.63;1.95;;;20.60;44.80;;;;;;5041990;28;20028;-47
2022/12/25 02:09:58;;;;;;;4.05;1.83;;;20.60;44.90;;;;;;5045430;28;20032;-51
2022/12/25 02:12:30;;;;;;;4.53;1.75;;;20.60;44.90;;;;;;5046713;28;20045;-51
2022/12/25 02:14:59;;;;;;;4.30;2.10;;;20.60;45.00;;;;;;5046749;28;20040;-48
2022/12/25 02:17:37;;;;;;;5.18;2.22;;;20.60;45.60;;;;;;5046016;28;20057;-53
2022/12/25 02:20:09;;;;;;;5.32;2.22;;;20.60;45.00;;;;;;5042785;28;20041;-50
2022/12/25 02:23:08;;;;;;;5.45;2.10;;;20.60;45.00;;;;;;5044952;28;20463;-52
2022/12/25 02:26:15;;;;;;;3.50;1.73;;;20.60;45.00;;;;;;5045891;28;20029;-52
2022/12/25 02:28:49;;;;;;;4.65;1.95;;;20.60;45.00;;;;;;5043235;28;20055;-52
2022/12/25 02:31:27;;;;;;;5.97;2.08;;;20.60;45.10;;;;;;5040321;28;20037;-53
2022/12/25 02:34:19;;;;;;;4.47;2.15;;;20.60;45.10;;;;;;5048515;28;20061;-55
2022/12/25 02:36:58;;;;;;;6.47;2.05;;;20.60;45.10;;;;;;5035143;28;20069;-51
2022/12/25 03:08:40;;;;;;;4.55;1.70;;;20.50;45.30;;;;;;5048960;28;20032;-52
2022/12/25 03:16:49;;;;;;;4.50;1.85;;;20.50;45.40;;;;;;5039594;28;20125;-48
2022/12/25 03:16:51;;;;;;;3.67;1.70;;;20.50;45.40;;;;;;5042840;28;20362;-50
2022/12/25 03:27:35;;;;;;;3.58;1.77;;;20.50;45.40;;;;;;5045845;28;20036;-51
2022/12/25 03:33:04;;;;;;;4.03;1.60;;;20.50;45.50;;;;;;5046139;28;20059;-49
2022/12/25 03:35:48;;;;;;;3.78;1.67;;;20.50;45.50;;;;;;5043089;28;20059;-46
2022/12/25 04:37:18;;;;;;;2.22;1.20;;;20.40;45.70;;;;;;5026549;28;20380;-48
2022/12/25 04:39:44;;;;;;;3.35;1.30;;;20.40;45.70;;;;;;5049086;28;20096;-49
2022/12/25 04:42:11;;;;;;;3.17;1.40;;;20.40;45.70;;;;;;5043254;28;21199;-47
2022/12/25 04:44:36;;;;;;;2.83;1.27;;;20.40;45.70;;;;;;5046260;28;20029;-51
2022/12/25 04:47:02;;;;;;;3.60;1.38;;;20.30;45.70;;;;;;5049483;28;20078;-48
2022/12/25 04:49:28;;;;;;;2.65;1.05;;;20.40;45.70;;;;;;5046791;28;20124;-46
2022/12/25 04:51:54;;;;;;;4.07;1.40;;;20.40;45.80;;;;;;5041398;28;20037;-49
2022/12/25 04:54:20;;;;;;;3.58;1.30;;;20.40;45.80;;;;;;5044409;28;20036;-49
2022/12/25 04:56:46;;;;;;;3.88;1.30;;;20.40;45.70;;;;;;5040662;28;20104;-50
2022/12/25 04:59:11;;;;;;;3.83;1.40;;;20.40;45.70;;;;;;5040258;28;20072;-47
2022/12/25 05:01:37;;;;;;;3.45;1.40;;;20.40;45.70;;;;;;5050232;28;20498;-49
2022/12/25 05:04:03;;;;;;;2.08;1.20;;;20.30;45.60;;;;;;5049402;28;20035;-50
2022/12/25 05:06:29;;;;;;;3.75;1.13;;;20.40;45.60;;;;;;5045013;28;20052;-48
2022/12/25 05:08:55;;;;;;;2.38;1.30;;;20.40;45.60;;;;;;5048372;28;20035;-49
2022/12/25 05:11:21;;;;;;;2.42;1.00;;;20.30;45.60;;;;;;5046532;28;20041;-49
2022/12/25 05:13:46;;;;;;;3.17;1.08;;;20.40;45.60;;;;;;5042167;28;20555;-51
2022/12/25 05:16:15;;;;;;;3.00;1.30;;;20.40;45.60;;;;;;5042176;28;20088;-51
2022/12/25 05:18:41;;;;;;;2.90;1.35;;;20.40;45.60;;;;;;5048233;28;20049;-51
2022/12/25 05:21:10;;;;;;;3.35;1.45;;;20.30;45.50;;;;;;5044447;28;20021;-55
2022/12/25 05:23:35;;;;;;;3.53;1.42;;;20.30;45.50;;;;;;5045078;28;20040;-51
2022/12/25 05:26:06;;;;;;;2.88;1.45;;;20.40;45.50;;;;;;5043754;28;20029;-51
2022/12/25 05:28:35;;;;;;;4.60;1.40;;;20.40;45.50;;;;;;5043408;28;20041;-51
2022/12/25 05:31:01;;;;;;;2.85;1.42;;;20.40;45.50;;;;;;5045025;28;20036;-54
2022/12/25 05:33:27;;;;;;;3.63;1.30;;;20.30;45.40;;;;;;5042693;28;20037;-54
2022/12/25 05:35:52;;;;;;;2.65;1.27;;;20.30;45.40;;;;;;5045983;28;20438;-52
2022/12/25 05:38:18;;;;;;;3.30;1.42;;;20.30;45.40;;;;;;5042181;28;20031;-54
2022/12/25 05:40:44;;;;;;;2.35;1.40;;;20.30;45.30;;;;;;5043228;28;20455;-47
2022/12/25 05:43:10;;;;;;;2.20;1.17;;;20.40;45.40;;;;;;5042985;28;20025;-48
2022/12/25 05:45:36;;;;;;;5.13;1.70;;;20.30;45.30;;;;;;5042819;28;20025;-50
2022/12/25 05:48:01;;;;;;;3.50;1.45;;;20.30;45.30;;;;;;5042218;28;20029;-53
2022/12/25 05:50:27;;;;;;;3.78;1.60;;;20.30;45.30;;;;;;5047515;28;20044;-49
2022/12/25 05:53:07;;;;;;;3.42;1.40;;;20.30;45.20;;;;;;5049494;28;20041;-49
2022/12/25 05:55:39;;;;;;;3.00;1.38;;;20.30;45.20;;;;;;5046823;28;20057;-49
2022/12/25 05:58:07;;;;;;;5.47;1.23;;;20.30;45.20;;;;;;5045020;28;20025;-47
2022/12/25 06:00:33;;;;;;;2.40;1.00;;;20.30;45.20;;;;;;5043142;28;20034;-51
2022/12/25 06:02:59;;;;;;;2.42;1.38;;;20.30;45.20;;;;;;5050353;28;20017;-52
2022/12/25 06:05:25;;;;;;;3.13;1.35;;;20.30;45.20;;;;;;5049932;28;20090;-49
2022/12/25 06:07:51;;;;;;;3.55;1.35;;;20.30;45.20;;;;;;5046716;28;20456;-52
2022/12/25 06:10:17;;;;;;;2.22;1.20;;;20.30;45.10;;;;;;5048819;28;20376;-52
2022/12/25 06:12:43;;;;;;;3.63;1.30;;;20.30;45.10;;;;;;5027517;28;20044;-52
2022/12/25 06:15:09;;;;;;;2.83;1.30;;;20.30;45.10;;;;;;5043446;28;20100;-50
2022/12/25 06:17:35;;;;;;;2.88;0.98;;;20.30;45.10;;;;;;5045052;28;20064;-50
2022/12/25 06:20:01;;;;;;;2.65;1.27;;;20.20;45.00;;;;;;5042896;28;20029;-48
2022/12/25 06:22:31;;;;;;;1.75;0.88;;;20.30;45.10;;;;;;5046530;28;20033;-54
2022/12/25 06:24:58;;;;;;;3.42;1.52;;;20.20;45.00;;;;;;5046908;28;20028;-55
2022/12/25 06:27:24;;;;;;;2.25;1.08;;;20.20;45.00;;;;;;5045324;28;20056;-53
2022/12/25 06:29:50;;;;;;;3.22;1.40;;;20.20;45.00;;;;;;5046710;28;20037;-53
2022/12/25 06:32:16;;;;;;;4.05;1.40;;;20.20;45.00;;;;;;5047232;28;20488;-54
2022/12/25 06:34:42;;;;;;;2.60;1.35;;;20.20;45.00;;;;;;5043093;28;20031;-52
2022/12/25 06:37:08;;;;;;;2.72;1.02;;;20.20;44.90;;;;;;5044791;28;20032;-48
2022/12/25 06:39:34;;;;;;;3.38;1.50;;;20.20;44.90;;;;;;5038721;28;20029;-51
2022/12/25 06:41:59;;;;;;;2.47;1.20;;;20.20;45.00;;;;;;5044968;28;20033;-48
2022/12/25 06:44:25;;;;;;;2.95;1.48;;;20.20;45.00;;;;;;5045440;28;20033;-51
2022/12/25 06:46:52;;;;;;;3.65;1.48;;;20.20;45.00;;;;;;5041210;28;20025;-50
2022/12/25 06:49:18;;;;;;;2.95;1.40;;;20.20;45.00;;;;;;5044272;28;20022;-49
2022/12/25 06:51:44;;;;;;;2.70;1.55;;;20.20;45.00;;;;;;5038287;28;20029;-46
2022/12/25 06:54:11;;;;;;;3.88;1.60;;;20.20;45.00;;;;;;5043922;28;20029;-52
2022/12/25 06:56:37;;;;;;;3.92;1.98;;;20.20;45.00;;;;;;5042841;28;20033;-49
2022/12/25 06:59:05;;;;;;;3.75;1.65;;;20.20;45.00;;;;;;5041912;28;20029;-51
2022/12/25 07:01:36;;;;;;;3.35;1.52;;;20.20;45.00;;;;;;5037644;28;20112;-51
2022/12/25 07:04:05;;;;;;;2.80;1.50;;;20.20;45.00;;;;;;5041029;28;20025;-52
2022/12/25 07:06:32;;;;;;;4.68;1.30;;;20.20;45.00;;;;;;5045613;28;20037;-52
2022/12/25 07:08:58;;;;;;;2.20;1.20;;;20.20;45.00;;;;;;5045126;28;20039;-53
2022/12/25 07:11:24;;;;;;;2.65;1.30;;;20.20;45.00;;;;;;5038948;28;20025;-50
2022/12/25 07:13:50;;;;;;;2.28;1.25;;;20.20;45.00;;;;;;5045169;28;20061;-52
2022/12/25 07:16:16;;;;;;;2.15;1.30;;;20.20;45.00;;;;;;5038109;28;20065;-53
2022/12/25 07:18:42;;;;;;;3.75;1.30;;;20.20;45.00;;;;;;5042613;28;20041;-55
2022/12/25 07:21:13;;;;;;;3.25;1.42;;;20.20;45.00;;;;;;5044057;28;20506;-55
2022/12/25 07:23:39;;;;;;;2.38;1.30;;;20.20;45.10;;;;;;5025156;28;20456;-54
2022/12/25 07:26:08;;;;;;;1.90;1.30;;;20.20;45.10;;;;;;5046757;28;20066;-50
2022/12/25 07:28:34;;;;;;;3.25;1.73;;;20.20;45.10;;;;;;5044720;28;20068;-50
2022/12/25 07:31:06;;;;;;;2.83;1.50;;;20.20;45.10;;;;;;5044629;28;20122;-53
2022/12/25 07:33:33;;;;;;;3.60;1.58;;;20.20;45.10;;;;;;5050359;28;20422;-54
2022/12/25 07:35:59;;;;;;;2.85;1.38;;;20.20;45.10;;;;;;5052081;28;20021;-47
2022/12/25 07:38:25;;;;;;;4.30;1.90;;;20.20;45.10;;;;;;5050999;28;20079;-53
2022/12/25 07:40:51;;;;;;;4.55;2.35;;;20.20;45.20;;;;;;5052780;28;20533;-52
2022/12/25 07:43:17;;;;;;;3.58;1.80;;;20.20;45.20;;;;;;5049901;28;20132;-52
2022/12/25 07:45:43;;;;;;;3.17;1.58;;;20.20;45.20;;;;;;5048327;28;20026;-50
2022/12/25 07:48:09;;;;;;;5.78;2.30;;;20.20;45.20;;;;;;5050553;28;20041;-53
2022/12/25 07:50:35;;;;;;;4.70;2.22;;;20.10;45.10;;;;;;5052078;28;20024;-52
2022/12/25 07:53:01;;;;;;;4.45;2.58;;;20.10;45.10;;;;;;5053221;28;20025;-52
2022/12/25 07:55:27;;;;;;;5.07;2.53;;;20.10;45.20;;;;;;5026221;28;20041;-49
2022/12/25 07:57:53;;;;;;;6.88;2.78;;;20.10;45.20;;;;;;5050343;28;20029;-50
2022/12/25 08:00:19;;;;;;;5.57;2.50;;;20.10;45.20;;;;;;5050303;28;20124;-51
2022/12/25 08:02:48;;;;;;;5.65;2.60;;;20.10;45.20;;;;;;5051197;28;20435;-53
2022/12/25 08:05:14;;;;;;;4.47;2.40;;;20.10;45.20;;;;;;5052101;28;20461;-51
2022/12/25 08:07:40;;;;;;;5.50;2.28;;;20.10;45.20;;;;;;5049063;28;20037;-47
2022/12/25 08:10:06;;;;;;;5.68;2.20;;;20.10;45.20;;;;;;5051244;28;20040;-51
2022/12/25 08:12:33;;;;;;;4.93;2.35;;;20.10;45.20;;;;;;5051315;28;20040;-53
2022/12/25 08:14:59;;;;;;;10.73;2.10;;;20.10;45.30;;;;;;5035205;28;20037;-50
2022/12/25 08:17:26;;;;;;;3.45;1.65;;;20.10;45.40;;;;;;5049124;28;20484;-46
2022/12/25 08:19:54;;;;;;;4.00;1.70;;;20.10;45.40;;;;;;5043881;28;20705;-49
2022/12/25 08:22:21;;;;;;;3.38;1.67;;;20.10;45.50;;;;;;5049829;28;20032;-53
2022/12/25 08:24:46;;;;;;;2.75;1.42;;;20.10;45.60;;;;;;5049091;28;20016;-52
2022/12/25 08:27:12;;;;;;;3.67;1.80;;;20.20;45.70;;;;;;5033579;28;20420;-52
2022/12/25 08:29:38;;;;;;;2.97;1.73;;;20.20;45.70;;;;;;5032712;28;20029;-51
2022/12/25 08:32:04;;;;;;;4.32;1.73;;;20.20;45.80;;;;;;5050258;28;20135;-51
2022/12/25 08:34:30;;;;;;;3.47;1.40;;;20.30;45.80;;;;;;5047079;28;20041;-45
2022/12/25 08:36:55;;;;;;;3.92;1.45;;;20.30;45.70;;;;;;5050679;28;20031;-46
2022/12/25 08:39:25;;;;;;;2.45;1.35;;;20.30;45.60;;;;;;5045289;28;20029;-48
2022/12/25 08:41:51;;;;;;;3.45;1.50;;;20.40;45.50;;;;;;5049051;28;20071;-53
2022/12/25 08:44:17;;;;;;;2.88;1.40;;;20.40;45.40;;;;;;5046757;28;20061;-48
2022/12/25 08:46:43;;;;;;;2.67;1.45;;;20.50;45.40;;;;;;5043578;28;20079;-49
2022/12/25 08:49:10;;;;;;;4.32;1.70;;;20.50;45.30;;;;;;5046497;28;20424;-49
2022/12/25 08:51:36;;;;;;;4.80;1.90;;;20.60;45.20;;;;;;5046506;28;20033;-49
2022/12/25 08:54:02;;;;;;;3.33;1.83;;;20.60;45.10;;;;;;5046643;28;20044;-52
2022/12/25 08:56:28;;;;;;;3.03;1.45;;;20.70;45.10;;;;;;5048567;28;20064;-46
2022/12/25 08:58:54;;;;;;;3.92;1.75;;;20.70;45.60;;;;;;5046641;28;20059;-50
2022/12/25 09:01:21;;;;;;;3.30;1.58;;;20.80;44.90;;;;;;5051033;28;20021;-53
2022/12/25 09:03:47;;;;;;;3.30;1.45;;;20.80;44.80;;;;;;5049306;28;20029;-52
2022/12/25 09:06:16;;;;;;;2.00;1.20;;;20.90;44.70;;;;;;5046985;28;20024;-50
2022/12/25 09:08:43;;;;;;;2.65;1.30;;;20.90;44.60;;;;;;5041394;28;20025;-51
2022/12/25 09:11:11;;;;;;;2.88;1.42;;;20.90;44.50;;;;;;5050117;28;20032;-48
2022/12/25 09:13:37;;;;;;;2.75;1.50;;;21.00;44.50;;;;;;5047995;28;20052;-47
2022/12/25 09:16:11;;;;;;;3.80;1.30;;;21.10;44.50;;;;;;5048589;28;20488;-50
2022/12/25 09:18:37;;;;;;;3.45;1.50;;;21.10;44.30;;;;;;5049570;28;20039;-51
2022/12/25 09:21:10;;;;;;;2.78;1.60;;;21.10;44.20;;;;;;5048506;28;20728;-48
2022/12/25 09:23:36;;;;;;;2.85;1.50;;;21.20;44.20;;;;;;5028849;28;20040;-52
2022/12/25 09:26:05;;;;;;;3.65;1.80;;;21.20;44.70;;;;;;5045585;28;20025;-47
2022/12/25 09:28:31;;;;;;;3.17;1.48;;;21.20;44.00;;;;;;5046674;28;20071;-51
2022/12/25 09:30:58;;;;;;;3.03;1.58;;;21.20;43.90;;;;;;5049701;28;20017;-52
2022/12/25 09:33:24;;;;;;;2.83;1.63;;;21.30;43.90;;;;;;5047831;28;20037;-49
2022/12/25 09:35:59;;;;;;;3.85;1.70;;;21.30;43.80;;;;;;5043768;28;20482;-48
2022/12/25 09:38:26;;;;;;;3.92;1.67;;;21.40;43.70;;;;;;5043517;28;20507;-50
2022/12/25 09:41:27;;;;;;;3.17;1.58;;;21.40;43.60;;;;;;5044173;28;20025;-51
2022/12/25 09:44:01;;;;;;;3.35;1.85;;;21.40;43.60;;;;;;5026835;28;20444;-48
2022/12/25 09:46:38;;;;;;;3.53;2.03;;;21.40;43.50;;;;;;5048597;28;20037;-53
2022/12/25 09:49:14;;;;;;;3.80;2.03;;;21.40;43.40;;;;;;5047410;28;20029;-49
2022/12/25 09:51:43;;;;;;;2.95;1.80;;;21.50;43.40;;;;;;5045783;28;20456;-45
2022/12/25 09:54:32;;;;;;;3.65;1.80;;;21.50;43.30;;;;;;5042682;28;20037;-49
2022/12/25 09:56:58;;;;;;;3.15;2.05;;;21.50;43.20;;;;;;5046888;28;20057;-49
2022/12/25 09:59:26;;;;;;;4.20;1.85;;;21.60;43.20;;;;;;5046024;28;20059;-49
2022/12/25 10:02:10;;;;;;;2.83;1.52;;;21.60;43.20;;;;;;5048327;28;20115;-52
2022/12/25 10:04:48;;;;;;;3.05;1.50;;;21.60;43.80;;;;;;5046603;28;20025;-53
2022/12/25 10:07:51;;;;;;;4.07;1.83;;;21.60;43.10;;;;;;5049143;28;20487;-50
2022/12/25 10:10:48;;;;;;;2.85;1.52;;;21.60;43.00;;;;;;5028293;28;20041;-51
2022/12/25 10:13:30;;;;;;;3.08;1.85;;;21.60;43.00;;;;;;5048000;28;20124;-50
2022/12/25 10:16:14;;;;;;;4.07;1.60;;;21.60;42.90;;;;;;5046873;28;20111;-51
2022/12/25 10:19:00;;;;;;;3.92;1.70;;;21.60;42.90;;;;;;5046362;28;20060;-53
2022/12/25 10:21:27;;;;;;;4.22;1.40;;;21.60;42.90;;;;;;5045166;28;20049;-55
2022/12/25 10:24:20;;;;;;;3.60;1.90;;;21.60;42.90;;;;;;5046958;28;20025;-53
2022/12/25 10:26:51;;;;;;;2.83;1.33;;;21.70;43.00;;;;;;5045898;28;20108;-55
2022/12/25 10:29:18;;;;;;;3.45;1.50;;;21.70;43.00;;;;;;5028423;28;20116;-50
2022/12/25 10:31:47;;;;;;;2.97;1.30;;;21.70;43.00;;;;;;5043301;28;20029;-53
2022/12/25 10:34:15;;;;;;;3.40;1.55;;;21.70;43.00;;;;;;5046940;28;20017;-52
2022/12/25 10:36:44;;;;;;;1.95;1.33;;;21.60;42.90;;;;;;5043301;28;20029;-51
2022/12/25 10:39:23;;;;;;;2.35;1.50;;;21.60;42.90;;;;;;5042177;28;20076;-52
2022/12/25 10:42:07;;;;;;;2.20;1.38;;;21.60;42.90;;;;;;5048932;28;20809;-51
2022/12/25 10:44:33;;;;;;;2.70;1.42;;;21.60;42.70;;;;;;5045991;28;20056;-49
2022/12/25 10:47:01;;;;;;;4.25;1.90;;;21.60;42.80;;;;;;5045318;28;20437;-48
2022/12/25 10:49:38;;;;;;;2.00;1.42;;;21.50;42.90;;;;;;5048351;28;20032;-48
2022/12/25 10:52:22;;;;;;;2.70;1.50;;;21.50;42.90;;;;;;5046318;28;20036;-49
2022/12/25 10:54:48;;;;;;;3.72;1.65;;;21.50;43.00;;;;;;5046374;28;20108;-48
2022/12/25 10:57:17;;;;;;;2.78;1.30;;;21.50;43.00;;;;;;5046560;28;20071;-48
2022/12/25 10:59:46;;;;;;;2.40;1.23;;;21.50;43.00;;;;;;5048074;28;20037;-51
2022/12/25 11:02:21;;;;;;;6.22;1.40;;;21.50;43.00;;;;;;5047282;28;20025;-51
2022/12/25 11:04:47;;;;;;;3.72;1.38;;;21.50;43.10;;;;;;5047594;28;20067;-51
2022/12/25 11:07:23;;;;;;;2.28;1.45;;;21.50;43.10;;;;;;5047057;28;20396;-47
2022/12/25 11:09:53;;;;;;;3.28;1.42;;;21.50;43.10;;;;;;5044937;28;20063;-47
2022/12/25 11:12:22;;;;;;;2.88;1.35;;;21.50;43.10;;;;;;5047562;28;20048;-48
2022/12/25 11:14:58;;;;;;;1.75;1.15;;;21.40;43.10;;;;;;5046312;28;20033;-49
2022/12/25 11:17:26;;;;;;;2.60;1.52;;;21.40;43.10;;;;;;5040829;28;20049;-49
2022/12/25 11:19:59;;;;;;;3.22;1.65;;;21.40;43.20;;;;;;5048818;28;20123;-48
2022/12/25 11:22:27;;;;;;;2.60;1.42;;;21.40;43.20;;;;;;5047663;28;20024;-45
2022/12/25 11:24:53;;;;;;;2.72;1.27;;;21.40;43.20;;;;;;5048498;28;20025;-48
2022/12/25 11:27:29;;;;;;;2.92;1.30;;;21.40;43.30;;;;;;5048739;28;20024;-49
2022/12/25 11:29:57;;;;;;;4.05;1.35;;;21.40;43.30;;;;;;5046868;28;20021;-50
2022/12/25 11:32:38;;;;;;;3.10;1.50;;;21.40;43.30;;;;;;5046489;28;20033;-48
2022/12/25 11:35:12;;;;;;;3.95;1.33;;;21.40;43.40;;;;;;5046496;28;20111;-49
2022/12/25 11:37:43;;;;;;;2.88;1.45;;;21.40;43.40;;;;;;5048114;28;20044;-50
2022/12/25 11:40:21;;;;;;;4.72;1.45;;;21.40;43.40;;;;;;5045876;28;20025;-50
2022/12/25 11:42:51;;;;;;;3.00;1.65;;;21.40;43.50;;;;;;5047349;28;20025;-51
2022/12/25 11:45:36;;;;;;;1.90;1.20;;;21.40;43.50;;;;;;5047414;28;20364;-50
2022/12/25 11:48:11;;;;;;;3.85;1.10;;;21.40;43.50;;;;;;5046038;28;20124;-48
2022/12/25 11:50:44;;;;;;;1.60;0.82;;;21.40;43.60;;;;;;5043877;28;20028;-49
2022/12/25 11:53:32;;;;;;;1.98;1.10;;;21.40;43.60;;;;;;5047511;28;20072;-47
2022/12/25 11:56:07;;;;;;;2.63;1.17;;;21.30;43.50;;;;;;5046281;28;20753;-51
2022/12/25 11:58:43;;;;;;;2.05;1.20;;;21.30;43.60;;;;;;5046917;28;20034;-51
2022/12/25 12:01:45;;;;;;;3.25;1.27;;;21.30;43.60;;;;;;5046194;28;20462;-46
2022/12/25 12:04:28;;;;;;;2.75;1.20;;;21.30;43.70;;;;;;5047365;28;20040;-49
2022/12/25 12:07:16;;;;;;;1.90;1.20;;;21.30;43.70;;;;;;5047185;28;20341;-48
2022/12/25 12:10:26;;;;;;;1.35;0.95;;;21.30;43.80;;;;;;5043046;28;20036;-51
2022/12/25 12:13:06;;;;;;;4.15;1.40;;;21.30;43.80;;;;;;4979917;28;20095;-47
2022/12/25 12:15:42;;;;;;;4.57;1.70;;;21.20;43.80;;;;;;5030442;28;20021;-48
2022/12/25 12:18:40;;;;;;;6.88;1.50;;;21.20;43.90;;;;;;5044517;28;20456;-49
2022/12/25 12:21:27;;;;;;;4.20;1.50;;;21.20;43.90;;;;;;4980595;28;20392;-54
2022/12/25 12:24:11;;;;;;;2.97;1.55;;;21.20;44.00;;;;;;5048600;28;20759;-52
2022/12/25 12:26:40;;;;;;;4.68;1.50;;;21.20;44.10;;;;;;5048256;28;20448;-52
2022/12/25 12:29:20;;;;;;;4.72;1.55;;;21.20;44.10;;;;;;5054869;28;20028;-51
2022/12/25 12:31:49;;;;;;;3.25;1.55;;;21.20;44.10;;;;;;5055983;28;20029;-52
2022/12/25 12:34:25;;;;;;;3.60;1.40;;;21.20;44.20;;;;;;5054660;28;20036;-47
2022/12/25 12:37:16;;;;;;;4.90;1.85;;;21.20;44.20;;;;;;5051802;28;20475;-46
2022/12/25 12:39:42;;;;;;;3.63;1.60;;;21.20;44.30;;;;;;5055773;28;20156;-45
2022/12/25 12:42:14;;;;;;;2.50;1.33;;;21.20;44.30;;;;;;5051559;28;20172;-58
2022/12/25 12:44:42;;;;;;;1.83;1.30;;;21.20;44.40;;;;;;5050846;28;20017;-55
2022/12/25 12:47:32;;;;;;;1.95;1.10;;;21.20;44.60;;;;;;5056967;28;20033;-55
2022/12/25 12:50:00;;;;;;;2.97;1.27;;;21.20;44.70;;;;;;5056897;28;20400;-54
2022/12/25 12:52:35;;;;;;;4.88;1.10;;;21.20;44.70;;;;;;5055814;28;20452;-53
2022/12/25 12:55:07;;;;;;;1.67;1.08;;;21.20;44.70;;;;;;5056159;28;20436;-57
2022/12/25 12:57:38;;;;;;;3.47;1.35;;;21.20;44.80;;;;;;5036512;28;20029;-54
2022/12/25 13:00:15;;;;;;;3.33;1.30;;;21.20;44.70;;;;;;5055531;28;20027;-50
2022/12/25 13:02:47;;;;;;;3.03;1.42;;;21.20;44.80;;;;;;5055443;28;20033;-49
2022/12/25 13:05:21;;;;;;;2.83;1.13;;;21.20;45.70;;;;;;5054540;28;20032;-54
2022/12/25 13:08:38;;;;;;;3.03;1.25;;;21.20;45.20;;;;;;5055182;28;20399;-56
2022/12/25 13:11:12;;;;;;;4.10;1.45;;;21.20;45.20;;;;;;4942679;29;20107;-56
2022/12/25 13:13:41;;;;;;;2.55;1.30;;;21.20;45.20;;;;;;4947355;29;20046;-53
2022/12/25 13:16:32;;;;;;;1.85;1.13;;;21.20;45.20;;;;;;5013576;28;20437;-54
2022/12/25 13:19:04;;;;;;;3.83;1.50;;;21.20;45.10;;;;;;5050197;28;20056;-55
2022/12/25 13:21:30;;;;;;;4.55;1.55;;;21.20;45.10;;;;;;5048683;28;20094;-49
2022/12/25 13:24:02;;;;;;;2.50;1.17;;;21.20;45.10;;;;;;5052193;28;20025;-52
2022/12/25 13:26:28;;;;;;;2.63;1.45;;;21.30;45.70;;;;;;5054676;28;20655;-47
2022/12/25 13:28:55;;;;;;;2.97;1.20;;;21.30;45.00;;;;;;5053353;28;20025;-52
2022/12/25 13:31:24;;;;;;;3.58;1.50;;;21.30;45.00;;;;;;5053405;28;20052;-51
2022/12/25 13:34:00;;;;;;;2.75;1.40;;;21.30;44.90;;;;;;5051630;28;20052;-52
2022/12/25 13:36:28;;;;;;;2.95;1.38;;;21.30;44.90;;;;;;5048146;28;20048;-53
2022/12/25 13:38:58;;;;;;;3.20;1.50;;;21.30;44.90;;;;;;5048081;28;20043;-52
2022/12/25 13:44:27;;;;;;;4.93;1.90;;;21.30;44.80;;;;;;5050212;28;20036;-52
2022/12/25 13:46:53;;;;;;;2.92;1.65;;;21.30;44.80;;;;;;5049313;28;20108;-51
2022/12/25 13:49:23;;;;;;;3.47;1.60;;;21.30;44.70;;;;;;5054000;28;20020;-48
2022/12/25 13:51:50;;;;;;;3.38;1.50;;;21.30;44.70;;;;;;5050487;28;20082;-50
2022/12/25 13:54:17;;;;;;;2.60;1.42;;;21.30;44.70;;;;;;5051412;28;20025;-51
2022/12/25 13:56:53;;;;;;;4.50;1.80;;;21.40;44.70;;;;;;5051389;28;20025;-49
2022/12/25 13:59:22;;;;;;;2.38;1.63;;;21.40;44.70;;;;;;5049457;28;20125;-52
2022/12/25 14:01:48;;;;;;;3.55;1.80;;;21.40;44.70;;;;;;5052273;28;20032;-52
2022/12/25 14:04:23;;;;;;;2.38;1.50;;;21.40;44.70;;;;;;5050528;28;20039;-53
2022/12/25 14:06:50;;;;;;;2.63;1.45;;;21.40;44.60;;;;;;5050077;28;20025;-51
2022/12/25 14:09:17;;;;;;;2.28;1.30;;;21.40;44.60;;;;;;5048853;28;20025;-52
2022/12/25 14:11:47;;;;;;;2.83;1.50;;;21.40;44.60;;;;;;5046937;28;20037;-50
2022/12/25 14:14:24;;;;;;;2.38;1.23;;;21.40;44.60;;;;;;5044968;28;20163;-56
2022/12/25 14:16:58;;;;;;;2.88;1.35;;;21.40;44.60;;;;;;5049832;28;20049;-54
2022/12/25 14:19:33;;;;;;;1.75;0.90;;;21.40;44.60;;;;;;5053597;28;20036;-53
2022/12/25 14:22:03;;;;;;;1.88;1.17;;;21.40;44.60;;;;;;5054097;28;20044;-53
2022/12/25 14:24:32;;;;;;;1.55;1.10;;;21.40;44.60;;;;;;5051444;28;20039;-48
2022/12/25 14:27:04;;;;;;;2.65;1.38;;;21.40;44.70;;;;;;5046683;28;20366;-51
2022/12/25 14:29:39;;;;;;;3.53;1.77;;;21.40;44.80;;;;;;5048272;28;20039;-51
2022/12/25 14:32:17;;;;;;;2.92;1.80;;;21.50;45.00;;;;;;5050684;28;20128;-52
2022/12/25 14:34:45;;;;;;;4.65;1.55;;;21.40;45.10;;;;;;5049837;28;20032;-55
2022/12/25 14:37:26;;;;;;;2.83;1.83;;;21.40;45.20;;;;;;5052867;28;20029;-54
2022/12/25 14:40:20;;;;;;;3.30;1.67;;;21.50;45.20;;;;;;5052879;28;20362;-55
2022/12/25 14:43:04;;;;;;;2.85;1.30;;;21.50;45.20;;;;;;5052929;28;20029;-54
2022/12/25 14:45:35;;;;;;;2.13;1.30;;;21.50;45.10;;;;;;5048353;28;20033;-52
2022/12/25 14:48:14;;;;;;;2.10;1.48;;;21.50;45.00;;;;;;5052039;28;20468;-53
2022/12/25 14:51:00;;;;;;;1.60;1.13;;;21.50;44.90;;;;;;5049018;28;20064;-54
2022/12/25 14:53:51;;;;;;;1.38;1.13;;;21.50;44.80;;;;;;5055563;28;20131;-53